sensor_id;sensor_type;location;lat;lon;timestamp;temperature;humidity
78550;DHT22;68091;52.130;5.570;2023-04-19T00:00:19;8.80;99.90
78550;DHT22;68091;52.130;5.570;2023-04-19T00:02:45;8.70;99.90
78550;DHT22;68091;52.130;5.570;2023-04-19T00:05:14;8.70;99.90
78550;DHT22;68091;52.130;5.570;2023-04-19T00:07:39;8.80;99.90
78550;DHT22;68091;52.130;5.570;2023-04-19T00:10:06;8.80;99.90
78550;DHT22;68091;52.130;5.570;2023-04-19T00:12:32;8.80;99.90
78550;DHT22;68091;52.130;5.570;2023-04-19T00:14:58;8.60;99.90
78550;DHT22;68091;52.130;5.570;2023-04-19T00:17:27;8.60;99.90
78550;DHT22;68091;52.130;5.570;2023-04-19T00:19:53;8.60;99.90
78550;DHT22;68091;52.130;5.570;2023-04-19T00:22:19;8.50;99.90
78550;DHT22;68091;52.130;5.570;2023-04-19T00:24:44;8.50;99.90
78550;DHT22;68091;52.130;5.570;2023-04-19T00:27:12;8.40;99.90
78550;DHT22;68091;52.130;5.570;2023-04-19T00:29:38;8.30;99.90
78550;DHT22;68091;52.130;5.570;2023-04-19T00:32:04;8.30;99.90
78550;DHT22;68091;52.130;5.570;2023-04-19T00:34:30;8.20;99.90
78550;DHT22;68091;52.130;5.570;2023-04-19T00:36:56;8.10;99.90
78550;DHT22;68091;52.130;5.570;2023-04-19T00:39:22;8.20;99.90
78550;DHT22;68091;52.130;5.570;2023-04-19T00:41:48;8.20;99.90
78550;DHT22;68091;52.130;5.570;2023-04-19T00:44:14;8.10;99.90
78550;DHT22;68091;52.130;5.570;2023-04-19T00:46:40;8.10;99.90
78550;DHT22;68091;52.130;5.570;2023-04-19T00:49:07;8.00;99.90
78550;DHT22;68091;52.130;5.570;2023-04-19T00:51:33;8.00;99.90
78550;DHT22;68091;52.130;5.570;2023-04-19T00:53:59;7.90;99.90
78550;DHT22;68091;52.130;5.570;2023-04-19T00:56:26;7.90;99.90
78550;DHT22;68091;52.130;5.570;2023-04-19T00:58:53;8.00;99.90
78550;DHT22;68091;52.130;5.570;2023-04-19T01:01:19;7.90;99.90
78550;DHT22;68091;52.130;5.570;2023-04-19T01:03:46;7.90;99.90
78550;DHT22;68091;52.130;5.570;2023-04-19T01:06:12;7.90;99.90
78550;DHT22;68091;52.130;5.570;2023-04-19T01:08:37;8.00;99.90
78550;DHT22;68091;52.130;5.570;2023-04-19T01:11:04;8.00;99.90
78550;DHT22;68091;52.130;5.570;2023-04-19T01:13:30;8.00;99.90
78550;DHT22;68091;52.130;5.570;2023-04-19T01:15:56;8.00;99.90
78550;DHT22;68091;52.130;5.570;2023-04-19T01:18:22;8.10;99.90
78550;DHT22;68091;52.130;5.570;2023-04-19T01:20:57;8.20;99.90
78550;DHT22;68091;52.130;5.570;2023-04-19T01:23:26;8.20;99.90
78550;DHT22;68091;52.130;5.570;2023-04-19T01:25:52;8.20;99.90
78550;DHT22;68091;52.130;5.570;2023-04-19T01:28:24;8.20;99.90
78550;DHT22;68091;52.130;5.570;2023-04-19T01:30:50;8.30;99.90
78550;DHT22;68091;52.130;5.570;2023-04-19T01:33:16;8.20;99.90
78550;DHT22;68091;52.130;5.570;2023-04-19T01:35:42;8.20;99.90
78550;DHT22;68091;52.130;5.570;2023-04-19T01:38:07;8.40;99.90
78550;DHT22;68091;52.130;5.570;2023-04-19T01:40:36;8.30;99.90
78550;DHT22;68091;52.130;5.570;2023-04-19T01:43:02;8.40;99.90
78550;DHT22;68091;52.130;5.570;2023-04-19T01:45:28;8.40;99.90
78550;DHT22;68091;52.130;5.570;2023-04-19T01:47:53;8.40;99.90
78550;DHT22;68091;52.130;5.570;2023-04-19T01:50:20;8.40;99.90
78550;DHT22;68091;52.130;5.570;2023-04-19T01:52:46;8.40;99.90
78550;DHT22;68091;52.130;5.570;2023-04-19T01:55:12;8.50;99.90
78550;DHT22;68091;52.130;5.570;2023-04-19T01:57:37;8.50;99.90
78550;DHT22;68091;52.130;5.570;2023-04-19T02:00:03;8.50;99.90
78550;DHT22;68091;52.130;5.570;2023-04-19T02:02:29;8.60;99.90
78550;DHT22;68091;52.130;5.570;2023-04-19T02:04:56;8.70;99.90
78550;DHT22;68091;52.130;5.570;2023-04-19T02:07:22;8.60;99.90
78550;DHT22;68091;52.130;5.570;2023-04-19T02:09:47;8.60;99.90
78550;DHT22;68091;52.130;5.570;2023-04-19T02:12:13;8.70;99.90
78550;DHT22;68091;52.130;5.570;2023-04-19T02:14:40;8.80;99.90
78550;DHT22;68091;52.130;5.570;2023-04-19T02:17:05;8.70;99.90
78550;DHT22;68091;52.130;5.570;2023-04-19T02:19:31;8.70;99.90
78550;DHT22;68091;52.130;5.570;2023-04-19T02:21:57;8.70;99.90
78550;DHT22;68091;52.130;5.570;2023-04-19T02:24:23;8.80;99.90
78550;DHT22;68091;52.130;5.570;2023-04-19T02:26:49;8.90;99.90
78550;DHT22;68091;52.130;5.570;2023-04-19T02:29:15;8.90;99.90
78550;DHT22;68091;52.130;5.570;2023-04-19T02:31:41;8.90;99.90
78550;DHT22;68091;52.130;5.570;2023-04-19T02:34:09;8.80;99.90
78550;DHT22;68091;52.130;5.570;2023-04-19T02:36:35;8.80;99.90
78550;DHT22;68091;52.130;5.570;2023-04-19T02:39:01;8.80;99.90
78550;DHT22;68091;52.130;5.570;2023-04-19T02:41:27;8.80;99.90
78550;DHT22;68091;52.130;5.570;2023-04-19T02:43:52;8.90;99.90
78550;DHT22;68091;52.130;5.570;2023-04-19T02:46:18;8.90;99.90
78550;DHT22;68091;52.130;5.570;2023-04-19T02:49:02;8.90;99.90
78550;DHT22;68091;52.130;5.570;2023-04-19T02:51:31;8.90;99.90
78550;DHT22;68091;52.130;5.570;2023-04-19T02:53:57;9.00;99.90
78550;DHT22;68091;52.130;5.570;2023-04-19T02:56:23;9.00;99.90
78550;DHT22;68091;52.130;5.570;2023-04-19T02:58:48;9.00;99.90
78550;DHT22;68091;52.130;5.570;2023-04-19T03:01:14;9.10;99.90
78550;DHT22;68091;52.130;5.570;2023-04-19T03:03:40;9.20;99.90
78550;DHT22;68091;52.130;5.570;2023-04-19T03:06:06;9.20;99.90
78550;DHT22;68091;52.130;5.570;2023-04-19T03:08:32;9.20;99.90
78550;DHT22;68091;52.130;5.570;2023-04-19T03:10:58;9.10;99.90
78550;DHT22;68091;52.130;5.570;2023-04-19T03:13:24;9.20;99.90
78550;DHT22;68091;52.130;5.570;2023-04-19T03:15:49;9.20;99.90
78550;DHT22;68091;52.130;5.570;2023-04-19T03:18:15;9.10;99.90
78550;DHT22;68091;52.130;5.570;2023-04-19T03:20:42;9.20;99.90
78550;DHT22;68091;52.130;5.570;2023-04-19T03:23:08;9.20;99.90
78550;DHT22;68091;52.130;5.570;2023-04-19T03:25:33;9.20;99.90
78550;DHT22;68091;52.130;5.570;2023-04-19T03:27:59;9.30;99.90
78550;DHT22;68091;52.130;5.570;2023-04-19T03:30:25;9.30;99.90
78550;DHT22;68091;52.130;5.570;2023-04-19T03:32:51;9.30;99.90
78550;DHT22;68091;52.130;5.570;2023-04-19T03:35:17;9.30;99.90
78550;DHT22;68091;52.130;5.570;2023-04-19T03:37:43;9.30;99.90
78550;DHT22;68091;52.130;5.570;2023-04-19T03:40:09;9.30;99.90
78550;DHT22;68091;52.130;5.570;2023-04-19T03:42:35;9.30;99.90
78550;DHT22;68091;52.130;5.570;2023-04-19T03:45:01;9.20;99.90
78550;DHT22;68091;52.130;5.570;2023-04-19T03:47:26;9.20;99.90
78550;DHT22;68091;52.130;5.570;2023-04-19T03:49:52;9.10;99.90
78550;DHT22;68091;52.130;5.570;2023-04-19T03:52:18;9.00;99.90
78550;DHT22;68091;52.130;5.570;2023-04-19T03:54:43;9.00;99.90
78550;DHT22;68091;52.130;5.570;2023-04-19T03:57:15;8.80;99.90
78550;DHT22;68091;52.130;5.570;2023-04-19T03:59:50;8.80;99.90
78550;DHT22;68091;52.130;5.570;2023-04-19T04:02:19;8.80;99.90
78550;DHT22;68091;52.130;5.570;2023-04-19T04:04:45;8.80;99.90
78550;DHT22;68091;52.130;5.570;2023-04-19T04:07:10;8.70;99.90
78550;DHT22;68091;52.130;5.570;2023-04-19T04:09:36;8.70;99.90
78550;DHT22;68091;52.130;5.570;2023-04-19T04:12:02;8.70;99.90
78550;DHT22;68091;52.130;5.570;2023-04-19T04:14:28;8.80;99.90
78550;DHT22;68091;52.130;5.570;2023-04-19T04:16:54;8.70;99.90
78550;DHT22;68091;52.130;5.570;2023-04-19T04:19:23;8.50;99.90
78550;DHT22;68091;52.130;5.570;2023-04-19T04:21:48;8.50;99.90
78550;DHT22;68091;52.130;5.570;2023-04-19T04:24:14;8.50;99.90
78550;DHT22;68091;52.130;5.570;2023-04-19T04:26:44;8.40;99.90
78550;DHT22;68091;52.130;5.570;2023-04-19T04:29:10;8.40;99.90
78550;DHT22;68091;52.130;5.570;2023-04-19T04:31:37;8.40;99.90
78550;DHT22;68091;52.130;5.570;2023-04-19T04:34:02;8.20;99.90
78550;DHT22;68091;52.130;5.570;2023-04-19T04:36:28;8.20;99.90
78550;DHT22;68091;52.130;5.570;2023-04-19T04:38:55;8.20;99.90
78550;DHT22;68091;52.130;5.570;2023-04-19T04:41:22;8.20;99.90
78550;DHT22;68091;52.130;5.570;2023-04-19T04:43:48;8.20;99.90
78550;DHT22;68091;52.130;5.570;2023-04-19T04:46:16;8.10;99.90
78550;DHT22;68091;52.130;5.570;2023-04-19T04:48:48;8.10;99.90
78550;DHT22;68091;52.130;5.570;2023-04-19T04:51:14;8.10;99.90
78550;DHT22;68091;52.130;5.570;2023-04-19T04:53:43;8.00;99.90
78550;DHT22;68091;52.130;5.570;2023-04-19T04:56:09;8.00;99.90
78550;DHT22;68091;52.130;5.570;2023-04-19T04:58:34;8.00;99.90
78550;DHT22;68091;52.130;5.570;2023-04-19T05:01:00;8.00;99.90
78550;DHT22;68091;52.130;5.570;2023-04-19T05:03:26;8.00;99.90
78550;DHT22;68091;52.130;5.570;2023-04-19T05:05:52;8.20;99.90
78550;DHT22;68091;52.130;5.570;2023-04-19T05:08:17;8.00;99.90
78550;DHT22;68091;52.130;5.570;2023-04-19T05:10:43;8.00;99.90
78550;DHT22;68091;52.130;5.570;2023-04-19T05:13:09;8.00;99.90
78550;DHT22;68091;52.130;5.570;2023-04-19T05:15:37;7.90;99.90
78550;DHT22;68091;52.130;5.570;2023-04-19T05:18:04;8.00;99.90
78550;DHT22;68091;52.130;5.570;2023-04-19T05:20:30;8.00;99.90
78550;DHT22;68091;52.130;5.570;2023-04-19T05:22:58;8.00;99.90
78550;DHT22;68091;52.130;5.570;2023-04-19T05:25:25;8.10;99.90
78550;DHT22;68091;52.130;5.570;2023-04-19T05:27:50;8.10;99.90
78550;DHT22;68091;52.130;5.570;2023-04-19T05:30:16;8.10;99.90
78550;DHT22;68091;52.130;5.570;2023-04-19T05:32:42;8.10;99.90
78550;DHT22;68091;52.130;5.570;2023-04-19T05:35:08;8.30;99.90
78550;DHT22;68091;52.130;5.570;2023-04-19T05:37:34;8.30;99.90
78550;DHT22;68091;52.130;5.570;2023-04-19T05:40:01;8.40;99.90
78550;DHT22;68091;52.130;5.570;2023-04-19T05:42:30;8.40;99.60
78550;DHT22;68091;52.130;5.570;2023-04-19T05:44:56;8.50;99.50
78550;DHT22;68091;52.130;5.570;2023-04-19T05:47:24;8.50;98.90
78550;DHT22;68091;52.130;5.570;2023-04-19T05:49:50;8.60;98.70
78550;DHT22;68091;52.130;5.570;2023-04-19T05:52:16;8.70;98.20
78550;DHT22;68091;52.130;5.570;2023-04-19T05:54:41;8.80;97.80
78550;DHT22;68091;52.130;5.570;2023-04-19T05:57:08;8.80;97.40
78550;DHT22;68091;52.130;5.570;2023-04-19T05:59:34;9.00;96.70
78550;DHT22;68091;52.130;5.570;2023-04-19T06:02:00;8.90;96.70
78550;DHT22;68091;52.130;5.570;2023-04-19T06:04:26;9.00;96.50
78550;DHT22;68091;52.130;5.570;2023-04-19T06:06:52;9.10;96.20
78550;DHT22;68091;52.130;5.570;2023-04-19T06:09:18;9.20;96.00
78550;DHT22;68091;52.130;5.570;2023-04-19T06:11:46;9.20;95.70
78550;DHT22;68091;52.130;5.570;2023-04-19T06:14:12;9.20;96.10
78550;DHT22;68091;52.130;5.570;2023-04-19T06:16:38;9.10;95.30
78550;DHT22;68091;52.130;5.570;2023-04-19T06:19:04;9.20;95.00
78550;DHT22;68091;52.130;5.570;2023-04-19T06:21:32;9.30;94.20
78550;DHT22;68091;52.130;5.570;2023-04-19T06:23:58;9.20;94.40
78550;DHT22;68091;52.130;5.570;2023-04-19T06:26:24;9.20;94.10
78550;DHT22;68091;52.130;5.570;2023-04-19T06:28:52;9.20;93.90
78550;DHT22;68091;52.130;5.570;2023-04-19T06:31:18;9.30;93.70
78550;DHT22;68091;52.130;5.570;2023-04-19T06:33:44;9.40;93.50
78550;DHT22;68091;52.130;5.570;2023-04-19T06:36:10;9.30;93.20
78550;DHT22;68091;52.130;5.570;2023-04-19T06:38:38;9.40;92.50
78550;DHT22;68091;52.130;5.570;2023-04-19T06:41:06;9.40;92.50
78550;DHT22;68091;52.130;5.570;2023-04-19T06:43:32;9.50;92.60
78550;DHT22;68091;52.130;5.570;2023-04-19T06:46:02;9.70;91.70
78550;DHT22;68091;52.130;5.570;2023-04-19T06:48:29;9.80;91.10
78550;DHT22;68091;52.130;5.570;2023-04-19T06:50:55;9.90;90.90
78550;DHT22;68091;52.130;5.570;2023-04-19T06:53:21;10.00;90.00
78550;DHT22;68091;52.130;5.570;2023-04-19T06:55:47;10.20;89.30
78550;DHT22;68091;52.130;5.570;2023-04-19T06:58:13;10.20;87.60
78550;DHT22;68091;52.130;5.570;2023-04-19T07:00:39;10.30;86.80
78550;DHT22;68091;52.130;5.570;2023-04-19T07:03:04;10.30;87.70
78550;DHT22;68091;52.130;5.570;2023-04-19T07:05:30;10.60;86.30
78550;DHT22;68091;52.130;5.570;2023-04-19T07:07:57;10.80;84.40
78550;DHT22;68091;52.130;5.570;2023-04-19T07:10:23;10.80;83.30
78550;DHT22;68091;52.130;5.570;2023-04-19T07:12:51;10.90;82.00
78550;DHT22;68091;52.130;5.570;2023-04-19T07:15:17;10.70;81.30
78550;DHT22;68091;52.130;5.570;2023-04-19T07:17:43;10.70;81.60
78550;DHT22;68091;52.130;5.570;2023-04-19T07:20:09;10.80;80.40
78550;DHT22;68091;52.130;5.570;2023-04-19T07:22:35;10.90;80.50
78550;DHT22;68091;52.130;5.570;2023-04-19T07:25:01;11.10;80.00
78550;DHT22;68091;52.130;5.570;2023-04-19T07:27:27;11.10;80.60
78550;DHT22;68091;52.130;5.570;2023-04-19T07:29:53;11.10;79.40
78550;DHT22;68091;52.130;5.570;2023-04-19T07:32:19;11.20;80.80
78550;DHT22;68091;52.130;5.570;2023-04-19T07:34:45;11.50;78.90
78550;DHT22;68091;52.130;5.570;2023-04-19T07:37:11;11.60;78.60
78550;DHT22;68091;52.130;5.570;2023-04-19T07:39:38;11.70;77.80
78550;DHT22;68091;52.130;5.570;2023-04-19T07:42:04;11.70;78.70
78550;DHT22;68091;52.130;5.570;2023-04-19T07:44:29;11.70;79.30
78550;DHT22;68091;52.130;5.570;2023-04-19T07:46:55;11.70;78.90
78550;DHT22;68091;52.130;5.570;2023-04-19T07:49:21;11.70;76.20
78550;DHT22;68091;52.130;5.570;2023-04-19T07:51:47;11.70;77.70
78550;DHT22;68091;52.130;5.570;2023-04-19T07:54:12;11.50;76.90
78550;DHT22;68091;52.130;5.570;2023-04-19T07:56:40;11.50;77.60
78550;DHT22;68091;52.130;5.570;2023-04-19T07:59:06;11.30;78.60
78550;DHT22;68091;52.130;5.570;2023-04-19T08:01:32;11.60;76.80
78550;DHT22;68091;52.130;5.570;2023-04-19T08:03:58;11.70;76.90
78550;DHT22;68091;52.130;5.570;2023-04-19T08:06:24;11.70;74.70
78550;DHT22;68091;52.130;5.570;2023-04-19T08:08:51;11.60;75.50
78550;DHT22;68091;52.130;5.570;2023-04-19T08:11:17;11.60;75.00
78550;DHT22;68091;52.130;5.570;2023-04-19T08:13:43;11.60;76.40
78550;DHT22;68091;52.130;5.570;2023-04-19T08:16:09;11.80;76.10
78550;DHT22;68091;52.130;5.570;2023-04-19T08:18:35;11.90;74.00
78550;DHT22;68091;52.130;5.570;2023-04-19T08:21:00;12.00;72.50
78550;DHT22;68091;52.130;5.570;2023-04-19T08:23:26;12.00;73.20
78550;DHT22;68091;52.130;5.570;2023-04-19T08:25:52;12.10;72.10
78550;DHT22;68091;52.130;5.570;2023-04-19T08:28:18;12.10;73.10
78550;DHT22;68091;52.130;5.570;2023-04-19T08:30:44;11.90;73.20
78550;DHT22;68091;52.130;5.570;2023-04-19T08:33:10;12.10;72.90
78550;DHT22;68091;52.130;5.570;2023-04-19T08:35:37;12.10;72.80
78550;DHT22;68091;52.130;5.570;2023-04-19T08:38:05;12.30;73.00
78550;DHT22;68091;52.130;5.570;2023-04-19T08:40:31;12.50;71.30
78550;DHT22;68091;52.130;5.570;2023-04-19T08:42:57;12.30;72.30
78550;DHT22;68091;52.130;5.570;2023-04-19T08:45:27;12.30;71.20
78550;DHT22;68091;52.130;5.570;2023-04-19T08:47:53;12.20;69.00
78550;DHT22;68091;52.130;5.570;2023-04-19T08:50:20;12.10;69.50
78550;DHT22;68091;52.130;5.570;2023-04-19T08:52:47;12.00;69.80
78550;DHT22;68091;52.130;5.570;2023-04-19T08:55:14;12.20;69.40
78550;DHT22;68091;52.130;5.570;2023-04-19T08:57:40;12.40;69.40
78550;DHT22;68091;52.130;5.570;2023-04-19T09:00:09;12.50;68.50
78550;DHT22;68091;52.130;5.570;2023-04-19T09:02:51;12.50;66.30
78550;DHT22;68091;52.130;5.570;2023-04-19T09:05:17;12.40;66.40
78550;DHT22;68091;52.130;5.570;2023-04-19T09:07:44;12.50;66.70
78550;DHT22;68091;52.130;5.570;2023-04-19T09:10:15;12.60;67.50
78550;DHT22;68091;52.130;5.570;2023-04-19T09:12:42;12.50;66.20
78550;DHT22;68091;52.130;5.570;2023-04-19T09:15:08;12.40;65.40
78550;DHT22;68091;52.130;5.570;2023-04-19T09:17:35;12.40;64.00
78550;DHT22;68091;52.130;5.570;2023-04-19T09:20:02;12.50;65.30
78550;DHT22;68091;52.130;5.570;2023-04-19T09:22:29;12.70;66.90
78550;DHT22;68091;52.130;5.570;2023-04-19T09:24:56;12.80;66.10
78550;DHT22;68091;52.130;5.570;2023-04-19T09:27:28;12.70;65.70
78550;DHT22;68091;52.130;5.570;2023-04-19T09:29:55;12.90;66.30
78550;DHT22;68091;52.130;5.570;2023-04-19T09:32:21;12.90;65.80
78550;DHT22;68091;52.130;5.570;2023-04-19T09:37:17;13.00;64.20
78550;DHT22;68091;52.130;5.570;2023-04-19T09:39:43;13.20;65.70
78550;DHT22;68091;52.130;5.570;2023-04-19T09:42:09;13.00;65.20
78550;DHT22;68091;52.130;5.570;2023-04-19T09:44:35;13.00;66.70
78550;DHT22;68091;52.130;5.570;2023-04-19T09:47:01;13.00;67.10
78550;DHT22;68091;52.130;5.570;2023-04-19T09:49:27;13.10;66.80
78550;DHT22;68091;52.130;5.570;2023-04-19T09:51:54;13.20;66.20
78550;DHT22;68091;52.130;5.570;2023-04-19T09:54:24;13.40;63.80
78550;DHT22;68091;52.130;5.570;2023-04-19T09:56:58;13.40;61.90
78550;DHT22;68091;52.130;5.570;2023-04-19T09:59:25;13.30;62.80
78550;DHT22;68091;52.130;5.570;2023-04-19T10:01:54;13.40;62.90
78550;DHT22;68091;52.130;5.570;2023-04-19T10:04:24;13.50;63.90
78550;DHT22;68091;52.130;5.570;2023-04-19T10:06:53;13.50;62.80
78550;DHT22;68091;52.130;5.570;2023-04-19T10:09:20;13.50;61.70
78550;DHT22;68091;52.130;5.570;2023-04-19T10:11:53;13.50;62.00
78550;DHT22;68091;52.130;5.570;2023-04-19T10:14:23;13.60;61.80
78550;DHT22;68091;52.130;5.570;2023-04-19T10:16:50;13.80;61.60
78550;DHT22;68091;52.130;5.570;2023-04-19T10:19:18;13.80;61.30
78550;DHT22;68091;52.130;5.570;2023-04-19T10:21:46;13.70;60.60
78550;DHT22;68091;52.130;5.570;2023-04-19T10:24:14;13.60;60.90
78550;DHT22;68091;52.130;5.570;2023-04-19T10:30:03;13.90;60.50
78550;DHT22;68091;52.130;5.570;2023-04-19T10:32:40;13.80;58.50
78550;DHT22;68091;52.130;5.570;2023-04-19T10:35:20;13.80;59.20
78550;DHT22;68091;52.130;5.570;2023-04-19T10:38:11;13.90;59.10
78550;DHT22;68091;52.130;5.570;2023-04-19T10:40:56;14.00;56.50
78550;DHT22;68091;52.130;5.570;2023-04-19T10:43:28;13.90;55.90
78550;DHT22;68091;52.130;5.570;2023-04-19T10:45:58;13.80;56.90
78550;DHT22;68091;52.130;5.570;2023-04-19T10:51:04;13.80;56.90
78550;DHT22;68091;52.130;5.570;2023-04-19T10:53:58;13.90;57.10
78550;DHT22;68091;52.130;5.570;2023-04-19T11:01:45;14.10;54.10
78550;DHT22;68091;52.130;5.570;2023-04-19T11:04:15;14.20;54.60
78550;DHT22;68091;52.130;5.570;2023-04-19T11:09:22;14.50;52.10
78550;DHT22;68091;52.130;5.570;2023-04-19T11:11:58;14.60;48.70
78550;DHT22;68091;52.130;5.570;2023-04-19T11:14:24;14.40;47.40
78550;DHT22;68091;52.130;5.570;2023-04-19T11:16:51;14.30;47.10
78550;DHT22;68091;52.130;5.570;2023-04-19T11:19:17;14.30;48.20
78550;DHT22;68091;52.130;5.570;2023-04-19T11:21:45;14.50;47.50
78550;DHT22;68091;52.130;5.570;2023-04-19T11:24:11;14.70;45.20
78550;DHT22;68091;52.130;5.570;2023-04-19T11:26:37;14.70;44.20
78550;DHT22;68091;52.130;5.570;2023-04-19T11:29:03;14.70;43.30
78550;DHT22;68091;52.130;5.570;2023-04-19T11:31:33;15.00;41.20
78550;DHT22;68091;52.130;5.570;2023-04-19T11:34:00;15.00;40.70
78550;DHT22;68091;52.130;5.570;2023-04-19T11:36:26;14.80;42.90
78550;DHT22;68091;52.130;5.570;2023-04-19T11:38:53;15.00;43.70
78550;DHT22;68091;52.130;5.570;2023-04-19T11:41:21;15.00;44.20
78550;DHT22;68091;52.130;5.570;2023-04-19T11:43:47;15.20;41.90
78550;DHT22;68091;52.130;5.570;2023-04-19T11:46:15;15.20;42.10
78550;DHT22;68091;52.130;5.570;2023-04-19T11:48:51;15.50;44.30
78550;DHT22;68091;52.130;5.570;2023-04-19T11:51:17;15.20;45.00
78550;DHT22;68091;52.130;5.570;2023-04-19T11:53:43;15.20;43.70
78550;DHT22;68091;52.130;5.570;2023-04-19T11:56:09;15.20;44.80
78550;DHT22;68091;52.130;5.570;2023-04-19T11:58:43;15.30;43.90
78550;DHT22;68091;52.130;5.570;2023-04-19T12:01:14;15.30;42.80
78550;DHT22;68091;52.130;5.570;2023-04-19T12:03:54;15.20;41.80
78550;DHT22;68091;52.130;5.570;2023-04-19T12:06:25;15.10;40.60
78550;DHT22;68091;52.130;5.570;2023-04-19T12:08:53;15.20;40.80
78550;DHT22;68091;52.130;5.570;2023-04-19T12:11:22;15.00;40.50
78550;DHT22;68091;52.130;5.570;2023-04-19T12:14:09;15.00;40.50
78550;DHT22;68091;52.130;5.570;2023-04-19T12:16:36;15.10;42.50
78550;DHT22;68091;52.130;5.570;2023-04-19T12:19:13;15.30;39.00
78550;DHT22;68091;52.130;5.570;2023-04-19T12:21:39;15.20;40.10
78550;DHT22;68091;52.130;5.570;2023-04-19T12:24:05;15.30;41.40
78550;DHT22;68091;52.130;5.570;2023-04-19T12:26:32;15.50;42.90
78550;DHT22;68091;52.130;5.570;2023-04-19T12:28:59;15.60;41.60
78550;DHT22;68091;52.130;5.570;2023-04-19T12:31:26;15.80;40.00
78550;DHT22;68091;52.130;5.570;2023-04-19T12:33:52;15.80;41.00
78550;DHT22;68091;52.130;5.570;2023-04-19T12:36:18;15.90;41.20
78550;DHT22;68091;52.130;5.570;2023-04-19T12:38:44;16.10;43.30
78550;DHT22;68091;52.130;5.570;2023-04-19T12:41:10;16.00;41.80
78550;DHT22;68091;52.130;5.570;2023-04-19T12:43:36;16.10;42.80
78550;DHT22;68091;52.130;5.570;2023-04-19T12:46:02;16.20;43.40
78550;DHT22;68091;52.130;5.570;2023-04-19T12:48:28;16.30;41.80
78550;DHT22;68091;52.130;5.570;2023-04-19T12:50:54;16.10;42.20
78550;DHT22;68091;52.130;5.570;2023-04-19T12:53:20;15.80;43.10
78550;DHT22;68091;52.130;5.570;2023-04-19T12:55:48;15.80;45.20
78550;DHT22;68091;52.130;5.570;2023-04-19T12:58:15;16.10;43.90
78550;DHT22;68091;52.130;5.570;2023-04-19T13:00:41;16.10;44.00
78550;DHT22;68091;52.130;5.570;2023-04-19T13:03:07;16.10;42.00
78550;DHT22;68091;52.130;5.570;2023-04-19T13:05:33;16.00;40.20
78550;DHT22;68091;52.130;5.570;2023-04-19T13:07:58;15.80;42.20
78550;DHT22;68091;52.130;5.570;2023-04-19T13:10:24;16.00;41.60
78550;DHT22;68091;52.130;5.570;2023-04-19T13:12:50;16.10;42.30
78550;DHT22;68091;52.130;5.570;2023-04-19T13:15:16;16.00;42.10
78550;DHT22;68091;52.130;5.570;2023-04-19T13:17:42;16.20;42.20
78550;DHT22;68091;52.130;5.570;2023-04-19T13:20:08;16.40;41.80
78550;DHT22;68091;52.130;5.570;2023-04-19T13:22:37;16.30;42.30
78550;DHT22;68091;52.130;5.570;2023-04-19T13:25:03;16.10;41.00
78550;DHT22;68091;52.130;5.570;2023-04-19T13:27:29;16.30;41.80
78550;DHT22;68091;52.130;5.570;2023-04-19T13:29:55;16.60;41.60
78550;DHT22;68091;52.130;5.570;2023-04-19T13:32:21;16.60;40.60
78550;DHT22;68091;52.130;5.570;2023-04-19T13:34:47;16.60;41.10
78550;DHT22;68091;52.130;5.570;2023-04-19T13:37:13;16.80;39.70
78550;DHT22;68091;52.130;5.570;2023-04-19T13:39:39;17.00;40.10
78550;DHT22;68091;52.130;5.570;2023-04-19T13:42:04;17.10;40.20
78550;DHT22;68091;52.130;5.570;2023-04-19T13:44:30;17.30;38.40
78550;DHT22;68091;52.130;5.570;2023-04-19T13:46:56;17.50;37.10
78550;DHT22;68091;52.130;5.570;2023-04-19T13:49:22;17.50;38.10
78550;DHT22;68091;52.130;5.570;2023-04-19T13:51:48;17.70;36.00
78550;DHT22;68091;52.130;5.570;2023-04-19T13:54:14;17.80;36.40
78550;DHT22;68091;52.130;5.570;2023-04-19T13:56:42;17.90;35.90
78550;DHT22;68091;52.130;5.570;2023-04-19T13:59:08;18.30;35.30
78550;DHT22;68091;52.130;5.570;2023-04-19T14:01:35;18.90;33.40
78550;DHT22;68091;52.130;5.570;2023-04-19T14:04:01;18.80;33.50
78550;DHT22;68091;52.130;5.570;2023-04-19T14:06:27;18.60;34.90
78550;DHT22;68091;52.130;5.570;2023-04-19T14:08:53;18.80;34.30
78550;DHT22;68091;52.130;5.570;2023-04-19T14:11:19;18.60;35.70
78550;DHT22;68091;52.130;5.570;2023-04-19T14:13:45;18.90;34.70
78550;DHT22;68091;52.130;5.570;2023-04-19T14:16:12;19.10;34.70
78550;DHT22;68091;52.130;5.570;2023-04-19T14:18:38;19.30;33.20
78550;DHT22;68091;52.130;5.570;2023-04-19T14:21:04;19.00;34.20
78550;DHT22;68091;52.130;5.570;2023-04-19T14:23:31;19.20;34.80
78550;DHT22;68091;52.130;5.570;2023-04-19T14:25:57;19.60;33.60
78550;DHT22;68091;52.130;5.570;2023-04-19T14:28:25;19.20;34.30
78550;DHT22;68091;52.130;5.570;2023-04-19T14:30:51;18.80;34.80
78550;DHT22;68091;52.130;5.570;2023-04-19T14:33:17;18.30;36.40
78550;DHT22;68091;52.130;5.570;2023-04-19T14:35:42;18.20;36.60
78550;DHT22;68091;52.130;5.570;2023-04-19T14:38:08;18.60;35.80
78550;DHT22;68091;52.130;5.570;2023-04-19T14:40:34;18.80;37.00
78550;DHT22;68091;52.130;5.570;2023-04-19T14:43:00;18.90;37.00
78550;DHT22;68091;52.130;5.570;2023-04-19T14:45:25;19.20;35.70
78550;DHT22;68091;52.130;5.570;2023-04-19T14:47:52;19.80;36.40
78550;DHT22;68091;52.130;5.570;2023-04-19T14:50:18;20.30;34.50
78550;DHT22;68091;52.130;5.570;2023-04-19T14:52:44;20.90;34.30
78550;DHT22;68091;52.130;5.570;2023-04-19T14:55:10;21.20;34.00
78550;DHT22;68091;52.130;5.570;2023-04-19T14:57:38;21.20;33.10
78550;DHT22;68091;52.130;5.570;2023-04-19T15:00:05;21.20;33.70
78550;DHT22;68091;52.130;5.570;2023-04-19T15:02:31;21.10;33.90
78550;DHT22;68091;52.130;5.570;2023-04-19T15:04:59;21.40;34.10
78550;DHT22;68091;52.130;5.570;2023-04-19T15:07:25;21.90;33.40
78550;DHT22;68091;52.130;5.570;2023-04-19T15:09:52;21.90;33.00
78550;DHT22;68091;52.130;5.570;2023-04-19T15:12:18;22.40;32.00
78550;DHT22;68091;52.130;5.570;2023-04-19T15:14:43;22.50;32.40
78550;DHT22;68091;52.130;5.570;2023-04-19T15:17:09;23.30;30.90
78550;DHT22;68091;52.130;5.570;2023-04-19T15:19:37;23.10;30.70
78550;DHT22;68091;52.130;5.570;2023-04-19T15:22:02;22.50;31.90
78550;DHT22;68091;52.130;5.570;2023-04-19T15:24:28;22.60;32.40
78550;DHT22;68091;52.130;5.570;2023-04-19T15:26:54;23.00;32.80
78550;DHT22;68091;52.130;5.570;2023-04-19T15:29:20;23.90;32.10
78550;DHT22;68091;52.130;5.570;2023-04-19T15:31:46;24.50;29.60
78550;DHT22;68091;52.130;5.570;2023-04-19T15:34:12;22.70;31.40
78550;DHT22;68091;52.130;5.570;2023-04-19T15:36:38;22.70;31.80
78550;DHT22;68091;52.130;5.570;2023-04-19T15:39:05;22.30;32.00
78550;DHT22;68091;52.130;5.570;2023-04-19T15:41:31;21.80;32.60
78550;DHT22;68091;52.130;5.570;2023-04-19T15:43:56;22.30;32.40
78550;DHT22;68091;52.130;5.570;2023-04-19T15:46:22;22.70;31.10
78550;DHT22;68091;52.130;5.570;2023-04-19T15:48:48;22.80;31.40
78550;DHT22;68091;52.130;5.570;2023-04-19T15:51:15;22.10;32.90